Pagrindinis puslapis
METAR-TAF:

METAR-TAF

Oro uostai :

Ankoridžas, Aliaska, Jungtinės Amerikos Valstijos

platuma: 61-10-28N, ilguma: 149-59-46W, Aukštis: 44 m

Dabartinis oras

Ataskaita buvo paskelbta 30 minutes, ne 04:53 UTC
Vėjas 4 kt iš Šiaurės/Šiaurės Vakarų
Temperatūra 1°C
Drėgmė 69%
Slėgis 1032 hPa
Matomumas: 16.1 km
Mažai debesys ne aukštis 5000 ft

METAR: PANC 210453Z 34004KT 10SM FEW050 01/M04 A3048 RMK AO2 SLP323 T00111039

Laikas: 21:23 (05:23 UTC)

Prognozė

Ataskaita buvo paskelbta 5 valandos ir 44 minutes, ne 23:39 UTC
Prognozė galioja nuo 21 metu 00 UTC su 22 metu 06 UTC
Vėjas 6 kt iš Šiaurės Rytų
Matomumas: 10 km
Mažai debesys ne aukštis 1000 ft
Išsisklaidę debesys ne aukštis 20000 ft

TAF: PANC 202339Z 2100/2206 05006KT P6SM FEW010 SCT200

Orai ataskaitas ir orų prognozės (METAR, TAF).

turimą stotys yra geltonos ir raudonos taškus žemėlapyje.

Perkelti pele per norėdami pamatyti stoties vardą.

Tada spustelėkite, norėdami matyti oro stebėjimo ir prognozės.

Norėdami pakeisti žemėlapį: spustelėkite ant žalios mygtukų su juodo kryžiaus žemyn,; žalią mygtuką su brūkšneliu, jei norite nutolinti; arba žalių rodyklių gretimoms žemėlapius.


METAR-TAF: